Wenn Sie den Mauscursor in der Übersichtskarte über ein Stationssymbol ziehen, so werden die aktuellen Stationsdaten eingeblendet. Dabei handelt es sich um die jeweils aktuell vorliegenden Messwerte einer Station (siehe Datum und Uhrzeitangabe).

Durch Anklicken des entsprechenden Stationssymbols gelangen Sie zu den Gangliniendarstellung der Niederschlagshöhe und der Lufttemperatur. Jeder Parameter ist für einen Zeitraum für 30 Tage dargestellt. Die Lufttemperaturganglinie wird dabei dem am längsten verfügbaren Vergleichszeitraum gegenüber gestellt. Somit kann man für jeden Zeitpunkt der aktuellen Lufttemperaturganglinie sehen, welchen Schwankungsbereich die Lufttemperatur im Vergleichszeitraum exakt für diesen Kalendertag bzw. Zeitpunkt bisher aufgewiesen hat und somit kann man die aktuelle Lufttemperatur gegenüber den langjährigen Verhältnissen sehr gut einstufen.  

Zudem können Sie die Daten für die letzten 30 Tage downloaden.

Die  Stationssymbole auf der Übersichtskarte werden entsprechend der aktuellen Lufttemperatur bei der jeweiligen Station eingefärbt (siehe dazu Legende neben der Übersichtskarte).

Stationsname Zeit [MEZ] NS [mm/15min] NS [mm/24h] Temp [°C] Luftfeuchte [%]
Andau 26.09.2022 00:15 0,0 6,9 13,3
Apetlon - A79 26.09.2022 00:15 0,0 7,6 12,6 100,0
Aspang 26.09.2022 00:15 0,0 8,4 10,7
Bad Tatzmannsdorf 26.09.2022 00:15 0,0 8,8 11,7
Bernstein 26.09.2022 00:15 0,0 7,9 10,2
Bonisdorf 26.09.2022 00:15 0,2 11,9 11,9 100,0
Bruckneudorf 26.09.2022 00:15 0,0 1,1 13,1
Deutsch Jahrndorf 26.09.2022 00:15 0,0 4,0 13,1 100,0
Deutsch Kaltenbrunn 26.09.2022 00:15 0,0 10,2 12,2
Deutschkreutz 26.09.2022 00:15 0,0 9,7 12,4 100,0
Donnerskirchen 26.09.2022 00:15 0,0 3,8 12,7 95,0
Drassburg 26.09.2022 00:15 0,0 5,8 12,1 100,0
Dürnbach 26.09.2022 00:15 0,0 8,3 11,4 100,0
Eisenstadt 26.09.2022 00:15 0,0 3,8 12,2 100,0
Feldbach 26.09.2022 00:15 0,0 10,3 12,4
Fischbach 26.09.2022 00:15 0,0 11,9 8,5
Frankenau 26.09.2022 00:15 0,0 8,1 11,4 100,0
Frauenkirchen 26.09.2022 00:15 0,0 5,5 12,7 100,0
Fürstenfeld 26.09.2022 00:15 0,0 9,9 12,4
Gattendorf 26.09.2022 00:15 0,0 2,8 13,3 100,0
Glasing 26.09.2022 00:15 0,0 9,9 13,0
Gleisdorf 26.09.2022 00:15 0,0 7,9 11,5
Halbturn 26.09.2022 00:15 0,0 5,3 13,1 100,0
Heiligenkreuz 26.09.2022 00:15 0,0 10,7 12,8 99,0
Hirschenkogel 26.09.2022 00:15 0,0 4,7 11,5
Hirschenstein 26.09.2022 00:15 0,0 8,0 9,8 100,0
Illmitz - Biologische Station 26.09.2022 00:15 0,0 5,1 10,1
Karl 26.09.2022 00:15 0,0 9,2 10,6 100,0
Kleinzicken 26.09.2022 00:15 0,0 0,0 12,3
Kobersdorf 26.09.2022 00:15 0,0 7,1 10,9 100,0
Lutzmannsburg 26.09.2022 00:15 0,0 7,3 12,0
Mattersburg 26.09.2022 00:15 0,0 4,3 12,2
Moenichkirchen 26.09.2022 00:15 0,0 10,1 8,7
Nebersdorf 26.09.2022 00:15 0,0 9,0 12,6 100,0
Neumarkt an der Raab 26.09.2022 00:15 0,0 10,7 13,0 100,0
Neusiedl am See 26.09.2022 00:15 0,0 2,9 12,9
Neustift an der Rosalia 26.09.2022 00:15 0,0 5,5 11,0 100,0
Nickelsdorf 26.09.2022 00:15 0,0 4,9 13,5 100,0
Nikitsch 26.09.2022 00:15 0,0 9,6 11,8 100,0
Oberpullendorf 26.09.2022 00:15 0,0 9,4 13,2 95,0
Oberwart 26.09.2022 00:15 0,0 7,9 11,8 99,0
Pinkafeld 26.09.2022 00:15 0,0 9,3 11,5 100,0
Pottschach 26.09.2022 00:15 0,0 3,2 12,1
Puchberg 26.09.2022 00:15 0,0 1,5 10,7
Ritzing 26.09.2022 00:15 0,0 8,0 11,5 100,0
Rust 26.09.2022 00:15 0,0 5,3 12,1 100,0
Seibersdorf 26.09.2022 00:15 0,0 0,2 12,8
Sieggraben 26.09.2022 00:15 0,0 6,7 10,9 100,0
St. Margarethen - Berg 26.09.2022 00:15 0,0 5,5 11,8 100,0
St. Michael 26.09.2022 00:15 0,0 11,0 13,1 100,0
Stadtschlaining 26.09.2022 00:15 0,0 7,7 9,4 48,0
Trausdorf 26.09.2022 00:15 0,0 5,0 12,2 100,0
Wiener Neustadt 26.09.2022 00:15 0,0 0,5 12,5
Woerterberg 26.09.2022 00:15 0,0 7,2 11,2
Wulkaprodersdorf 26.09.2022 00:15 0,0 4,9 12,9 100,0
Zurndorf - Friedrichshof 26.09.2022 00:15 0,0 3,9 12,9 100,0